Impacts TAF Board
For situational awareness. Not to be used for flight planning purposes.
IDs:

KCLE - Cleveland/Hopkins In, OH, US

Issued at 1454 UTC 03 Dec 2021
Updated at 1622 UTC 03 Dec 2021
Potential Impact None Slight Moderate High
Time<<04/05Z 04/06Z 04/07Z 04/08Z 04/09Z 04/10Z 04/11Z 04/12Z 04/13Z 04/14Z 04/15Z 04/16Z 04/17Z>>
Type PRVL PRVL PRVL PRVL PRVL PRVL PRVL PRVL PRVL PRVL PRVL PRVL PRVL
VIS >6 >6 >6 >6 >6 >6 >6 >6 >6 >6 >6 >6 >6
CIG 100 100 100 100 100 100 100 100 100 40 40 40 40
Cover BKN BKN BKN BKN BKN BKN BKN BKN BKN BKN BKN BKN BKN
FltCat VFR VFR VFR VFR VFR VFR VFR VFR VFR VFR VFR VFR VFR
WX -- -- -- -- -- -- -- -- -- -- -- -- --
WDir VRB VRB VRB VRB VRB VRB VRB VRB VRB 280 280 280 280
WSpd 3 3 3 3 3 3 3 3 3 10 10 10 10
WGst -- -- -- -- -- -- -- -- -- -- -- -- --
WSHgt -- -- -- -- -- -- -- -- -- -- -- -- --
WSDir -- -- -- -- -- -- -- -- -- -- -- -- --
WSSpd -- -- -- -- -- -- -- -- -- -- -- -- --
Raw TAF
KCLE 031454Z 0315/0418 28004KT P6SM BKN060 OVC110
  FM040000 VRB03KT P6SM BKN100
  FM041400 28010KT P6SM BKN040


METAR Board
Radar Display
Forecast Discussion
For situational awareness. Not to be used for flight planning purposes.